Terminal Aerodrome Forecast
Issued by NWS

Home | Current Version | Previous Version | Text Only | Print | Product List | Glossary On
Versions: 1 2 3 4 5 6 7 8 9 10 11 12 13 14 15 16 17 18 19 20 21 22 23 24 25 26 27
000
FTUS45 KGJT 250541
TAFCNY
TAF
KCNY 250541Z 2506/2606 34004KT P6SM SCT020 BKN120
     FM251500 31008KT 5SM -SN OVC015
     FM252100 29010G15KT P6SM VCSH SCT030 OVC050
     FM260300 VRB03KT P6SM VCSH SCT030 OVC050=

USA.gov is the U.S. government's official web portal to all federal, state and local government web resources and services.